Adamsville, Utah
Current Conditions -  °F | °C
As of 1:52 AM on Friday 24 Oct 2014 (Local Time) from KMLF Reporting Station
Clear Clear  
Wind Chill:   Ceiling: Unl
Heat Index:   Visibility: 10mi
Dew Point: -2°   Wind: 7mph
Humidity: 50%   Direction: 220°SW
Pressure: 30.19"   Gusts: NA
Location:  38.2672°N, 112.728°W
Report Text: KMLF 240752Z AUTO 22006KT 10SM CLR 08/M02 A3019 RMK AO2 SLP180 T00831017 TSNO
Loading
Personal Weather Stations






























Interactive Weather Map
Tropical Storm Tracking
New forecast layout! Learn more

10-Day Weather Forecast

Advertisements
Track Severe Weather on mobile